createdAt,value
2018-11-02T00:01:05.198Z,99907.90
2018-11-02T00:03:32.819Z,99913.64
2018-11-02T00:06:00.503Z,99923.15
2018-11-02T00:08:28.203Z,99919.70
2018-11-02T00:10:55.832Z,99916.43
2018-11-02T00:13:23.541Z,99914.88
2018-11-02T00:15:51.245Z,99920.25
2018-11-02T00:18:18.902Z,99929.16
2018-11-02T00:20:46.598Z,99929.86
2018-11-02T00:23:14.234Z,99928.80
2018-11-02T00:25:41.944Z,99921.84
2018-11-02T00:28:09.626Z,99938.83
2018-11-02T00:30:37.524Z,99939.60
2018-11-02T00:33:05.229Z,99938.76
2018-11-02T00:35:32.915Z,99943.05
2018-11-02T00:38:00.622Z,99952.80
2018-11-02T00:40:28.494Z,99955.80
2018-11-02T00:42:56.178Z,99965.48
2018-11-02T00:45:23.860Z,99961.67
2018-11-02T00:47:51.516Z,99964.58
2018-11-02T00:50:19.159Z,99961.58
2018-11-02T00:52:46.830Z,99968.18
2018-11-02T00:55:14.551Z,99963.03
2018-11-02T00:57:42.197Z,99969.16
2018-11-02T01:00:12.446Z,99960.48
2018-11-02T01:02:40.102Z,99960.31
2018-11-02T01:05:08.406Z,99956.17
2018-11-02T01:07:36.265Z,99968.00
2018-11-02T01:10:04.361Z,99974.23
2018-11-02T01:12:32.016Z,99974.88
2018-11-02T01:14:59.662Z,99974.51
2018-11-02T01:17:27.245Z,99978.94
2018-11-02T01:19:54.965Z,99977.27
2018-11-02T01:22:22.595Z,99984.34
2018-11-02T01:24:50.268Z,99986.79
2018-11-02T01:27:17.914Z,99977.08
2018-11-02T01:32:19.932Z,99979.45
2018-11-02T01:34:47.586Z,99980.68
2018-11-02T01:37:15.278Z,99978.69
2018-11-02T01:39:42.896Z,99990.34
2018-11-02T01:42:10.556Z,99995.48
2018-11-02T01:44:38.551Z,99992.97
2018-11-02T01:47:06.645Z,100000.34
2018-11-02T01:49:34.320Z,100005.47
2018-11-02T01:52:08.627Z,100000.72
2018-11-02T01:54:36.270Z,99994.27
2018-11-02T01:57:04.001Z,99998.47
2018-11-02T01:59:31.621Z,100003.19
2018-11-02T02:01:59.230Z,100008.22
2018-11-02T02:04:26.812Z,100008.67
2018-11-02T02:06:54.466Z,100016.02
2018-11-02T02:09:22.080Z,100017.84
2018-11-02T02:11:49.642Z,100016.21
2018-11-02T02:14:17.244Z,100013.84
2018-11-02T02:16:44.962Z,100017.59
2018-11-02T02:19:13.058Z,100019.48
2018-11-02T02:21:40.672Z,100014.04
2018-11-02T02:24:08.342Z,100018.70
2018-11-02T02:26:36.029Z,100015.28
2018-11-02T02:29:03.940Z,100015.62
2018-11-02T02:31:31.556Z,100012.77
2018-11-02T02:33:59.201Z,100008.18
2018-11-02T02:36:26.874Z,100019.59
2018-11-02T02:38:54.542Z,100009.80
2018-11-02T02:41:22.159Z,100008.33
2018-11-02T02:43:49.879Z,100018.95
2018-11-02T02:46:17.521Z,100018.09
2018-11-02T02:48:45.111Z,100017.23
2018-11-02T02:51:12.772Z,100017.14
2018-11-02T02:53:40.409Z,100025.42
2018-11-02T02:56:07.980Z,100022.84
2018-11-02T02:58:35.615Z,100028.24
2018-11-02T03:01:03.426Z,100033.27
2018-11-02T03:03:31.046Z,100038.73
2018-11-02T03:05:58.659Z,100046.34
2018-11-02T03:08:26.404Z,100052.44
2018-11-02T03:10:54.188Z,100052.16
2018-11-02T03:13:23.021Z,100054.80
2018-11-02T03:15:53.593Z,100067.87
2018-11-02T03:18:21.302Z,100056.96
2018-11-02T03:20:48.915Z,100057.43
2018-11-02T03:23:16.499Z,100068.93
2018-11-02T03:25:44.172Z,100073.86
2018-11-02T03:28:11.825Z,100078.33
2018-11-02T03:30:39.512Z,100080.69
2018-11-02T03:33:07.151Z,100085.76
2018-11-02T03:35:34.786Z,100096.21
2018-11-02T03:38:02.486Z,100099.05
2018-11-02T03:40:30.303Z,100105.42
2018-11-02T03:42:57.994Z,100105.81
2018-11-02T03:45:25.694Z,100105.75
2018-11-02T03:47:53.350Z,100112.92
2018-11-02T03:50:21.562Z,100111.36
2018-11-02T03:52:49.213Z,100109.77
2018-11-02T03:55:16.876Z,100107.70
2018-11-02T03:57:44.604Z,100115.82
2018-11-02T04:00:12.256Z,100113.97
2018-11-02T04:02:40.073Z,100116.95
2018-11-02T04:05:08.761Z,100121.72
2018-11-02T04:07:36.540Z,100125.52
2018-11-02T04:10:04.746Z,100112.55
2018-11-02T04:12:32.348Z,100114.52
2018-11-02T04:14:59.958Z,100122.81
2018-11-02T04:17:27.611Z,100125.13
2018-11-02T04:19:55.281Z,100129.98
2018-11-02T04:22:22.900Z,100139.53
2018-11-02T04:24:50.554Z,100143.91
2018-11-02T04:27:18.216Z,100148.92
2018-11-02T04:29:45.889Z,100155.28
2018-11-02T04:32:13.620Z,100155.91
2018-11-02T04:34:41.283Z,100156.41
2018-11-02T04:37:08.920Z,100149.97
2018-11-02T04:39:36.545Z,100146.34
2018-11-02T04:42:04.247Z,100145.02
2018-11-02T04:44:31.972Z,100144.94
2018-11-02T04:46:59.665Z,100139.89
2018-11-02T04:49:27.367Z,100147.42
2018-11-02T04:51:55.105Z,100152.09
2018-11-02T04:54:22.752Z,100153.22
2018-11-02T04:56:50.398Z,100158.33
2018-11-02T04:59:18.038Z,100164.50
2018-11-02T05:01:45.722Z,100162.52
2018-11-02T05:04:13.366Z,100164.53
2018-11-02T05:06:41.055Z,100172.87
2018-11-02T05:09:08.784Z,100177.30
2018-11-02T05:11:36.511Z,100186.78
2018-11-02T05:14:04.542Z,100183.16
2018-11-02T05:16:32.224Z,100192.38
2018-11-02T05:18:59.826Z,100198.16
2018-11-02T05:21:27.511Z,100198.62
2018-11-02T05:23:55.122Z,100201.04
2018-11-02T05:26:22.762Z,100197.97
2018-11-02T05:28:50.423Z,100199.71
2018-11-02T05:31:18.076Z,100207.24
2018-11-02T05:33:45.729Z,100215.72
2018-11-02T05:36:13.428Z,100218.67
2018-11-02T05:38:41.094Z,100214.50
2018-11-02T05:41:08.868Z,100224.55
2018-11-02T05:43:36.597Z,100219.80
2018-11-02T05:46:05.157Z,100220.06
2018-11-02T05:48:32.853Z,100231.61
2018-11-02T05:51:00.470Z,100235.36
2018-11-02T05:53:28.162Z,100237.94
2018-11-02T05:55:55.900Z,100245.68
2018-11-02T05:58:23.481Z,100255.61
2018-11-02T06:00:51.199Z,100262.62
2018-11-02T06:03:18.879Z,100270.30
2018-11-02T06:05:46.621Z,100277.85
2018-11-02T06:08:14.263Z,100274.91
2018-11-02T06:10:42.002Z,100297.38
2018-11-02T06:13:09.718Z,100302.02
2018-11-02T06:15:37.395Z,100305.56
2018-11-02T06:18:05.267Z,100312.66
2018-11-02T06:20:33.031Z,100321.97
2018-11-02T06:23:00.660Z,100320.79
2018-11-02T06:25:28.426Z,100331.48
2018-11-02T06:27:56.115Z,100338.23
2018-11-02T06:30:23.946Z,100342.23
2018-11-02T06:32:51.724Z,100341.99
2018-11-02T06:35:19.347Z,100343.91
2018-11-02T06:37:47.021Z,100347.36
2018-11-02T06:40:14.702Z,100360.44
2018-11-02T06:42:42.590Z,100361.03
2018-11-02T06:45:10.726Z,100363.78
2018-11-02T06:47:38.690Z,100367.23
2018-11-02T06:50:06.730Z,100375.08
2018-11-02T06:52:34.491Z,100375.55
2018-11-02T06:55:02.262Z,100377.27
2018-11-02T06:57:29.985Z,100377.27
2018-11-02T06:59:57.835Z,100374.39
2018-11-02T07:02:25.263Z,100379.05
2018-11-02T07:04:52.933Z,100386.80
2018-11-02T07:07:20.650Z,100391.20
2018-11-02T07:09:48.250Z,100397.06
2018-11-02T07:12:15.993Z,100393.45
2018-11-02T07:14:43.611Z,100403.33
2018-11-02T07:17:11.293Z,100407.92
2018-11-02T07:19:38.976Z,100415.28
2018-11-02T07:22:06.539Z,100413.50
2018-11-02T07:24:34.530Z,100413.30
2018-11-02T07:27:02.269Z,100411.75
2018-11-02T07:29:30.481Z,100426.75
2018-11-02T07:31:58.283Z,100422.44
2018-11-02T07:34:26.250Z,100417.61
2018-11-02T07:36:54.092Z,100422.84
2018-11-02T07:39:21.795Z,100425.01
2018-11-02T07:41:49.482Z,100433.23
2018-11-02T07:44:17.417Z,100441.00
2018-11-02T07:46:45.311Z,100440.39
2018-11-02T07:49:13.003Z,100448.88
2018-11-02T07:51:40.720Z,100447.66
2018-11-02T07:54:08.392Z,100446.53
2018-11-02T07:56:36.098Z,100459.78
2018-11-02T07:59:03.885Z,100460.14
2018-11-02T08:01:31.609Z,100461.69
2018-11-02T08:04:00.045Z,100468.86
2018-11-02T08:06:27.117Z,100467.87
2018-11-02T08:08:54.832Z,100471.03
2018-11-02T08:11:22.876Z,100469.89
2018-11-02T08:13:50.548Z,100471.70
2018-11-02T08:16:18.294Z,100474.73
2018-11-02T08:18:46.103Z,100470.91
2018-11-02T08:21:14.065Z,100473.09
2018-11-02T08:23:41.727Z,100476.56
2018-11-02T08:26:09.380Z,100479.34
2018-11-02T08:28:37.057Z,100476.40
2018-11-02T08:31:04.959Z,100482.23
2018-11-02T08:33:32.666Z,100487.86
2018-11-02T08:36:00.635Z,100489.77
2018-11-02T08:38:28.378Z,100492.28
2018-11-02T08:40:56.126Z,100499.62
2018-11-02T08:43:23.917Z,100504.19
2018-11-02T08:45:51.608Z,100502.03
2018-11-02T08:48:19.281Z,100502.88
2018-11-02T08:50:46.928Z,100518.64
2018-11-02T08:53:14.587Z,100508.52
2018-11-02T08:55:42.286Z,100508.24
2018-11-02T08:58:10.122Z,100515.58
2018-11-02T09:00:37.569Z,100527.01
2018-11-02T09:03:05.922Z,100530.25
2018-11-02T09:05:33.648Z,100529.59
2018-11-02T09:08:01.354Z,100535.32
2018-11-02T09:10:29.069Z,100520.88
2018-11-02T09:12:56.738Z,100517.43
2018-11-02T09:15:24.418Z,100511.31
2018-11-02T09:17:52.029Z,100513.85
2018-11-02T09:20:19.666Z,100520.80
2018-11-02T09:22:47.386Z,100525.94
2018-11-02T09:25:15.089Z,100526.44
2018-11-02T09:27:42.886Z,100521.33
2018-11-02T09:30:13.736Z,100517.00
2018-11-02T09:32:41.462Z,100512.72
2018-11-02T09:35:09.114Z,100512.26
2018-11-02T09:37:36.754Z,100513.43
2018-11-02T09:40:06.721Z,100529.38
2018-11-02T09:42:34.487Z,100540.61
2018-11-02T09:45:02.192Z,100540.11
2018-11-02T09:47:29.914Z,100535.56
2018-11-02T09:49:57.688Z,100538.53
2018-11-02T09:52:25.378Z,100539.54
2018-11-02T09:54:53.014Z,100532.75
2018-11-02T09:57:20.773Z,100531.44
2018-11-02T09:59:48.472Z,100526.42
2018-11-02T10:02:16.344Z,100522.79
2018-11-02T10:04:44.138Z,100528.05
2018-11-02T10:07:11.905Z,100527.07
2018-11-02T10:09:39.696Z,100530.77
2018-11-02T10:12:07.385Z,100533.92
2018-11-02T10:14:35.198Z,100528.94
2018-11-02T10:17:02.909Z,100526.61
2018-11-02T10:19:31.003Z,100533.20
2018-11-02T10:21:58.691Z,100526.37
2018-11-02T10:24:26.411Z,100532.64
2018-11-02T10:26:54.143Z,100535.69
2018-11-02T10:29:22.007Z,100533.32
2018-11-02T10:31:49.673Z,100535.71
2018-11-02T10:34:17.336Z,100531.22
2018-11-02T10:36:45.303Z,100540.64
2018-11-02T10:39:13.955Z,100540.11
2018-11-02T10:41:47.773Z,100541.81
2018-11-02T10:44:18.105Z,100547.83
2018-11-02T10:46:46.501Z,100537.80
2018-11-02T10:49:14.837Z,100540.00
2018-11-02T10:51:42.488Z,100541.84
2018-11-02T10:54:10.210Z,100526.85
2018-11-02T10:56:37.951Z,100541.51
2018-11-02T10:59:05.570Z,100554.38
2018-11-02T11:01:38.936Z,100551.44
2018-11-02T11:04:07.019Z,100540.67
2018-11-02T11:06:35.302Z,100545.25
2018-11-02T11:09:05.192Z,100543.17
2018-11-02T11:11:33.934Z,100535.96
2018-11-02T11:14:01.561Z,100549.97
2018-11-02T11:16:29.397Z,100546.28
2018-11-02T11:18:57.125Z,100535.86
2018-11-02T11:21:25.018Z,100533.18
2018-11-02T11:23:52.652Z,100529.21
2018-11-02T11:26:20.368Z,100537.25
2018-11-02T11:28:48.066Z,100542.56
2018-11-02T11:31:15.780Z,100542.99
2018-11-02T11:33:43.436Z,100539.60
2018-11-02T11:36:11.207Z,100531.28
2018-11-02T11:38:38.968Z,100525.93
2018-11-02T11:41:06.638Z,100524.70
2018-11-02T11:43:34.414Z,100521.96
2018-11-02T11:46:02.166Z,100518.56
2018-11-02T11:48:29.951Z,100514.17
2018-11-02T11:50:57.623Z,100534.25
2018-11-02T11:53:25.378Z,100522.98
2018-11-02T11:55:53.105Z,100519.72
2018-11-02T11:58:20.914Z,100529.79
2018-11-02T12:00:48.716Z,100511.68
2018-11-02T12:03:16.520Z,100513.82
2018-11-02T12:05:44.588Z,100513.62
2018-11-02T12:08:12.232Z,100504.47
2018-11-02T12:10:39.907Z,100504.68
2018-11-02T12:13:07.673Z,100514.49
2018-11-02T12:18:13.039Z,100521.78
2018-11-02T12:20:41.150Z,100525.34
2018-11-02T12:23:09.461Z,100512.27
2018-11-02T12:25:37.152Z,100522.80
2018-11-02T12:28:05.234Z,100513.65
2018-11-02T12:30:33.048Z,100520.12
2018-11-02T12:33:00.707Z,100515.47
2018-11-02T12:35:28.416Z,100520.30
2018-11-02T12:37:56.108Z,100521.33
2018-11-02T12:40:24.234Z,100523.86
2018-11-02T12:42:52.952Z,100521.00
2018-11-02T12:45:21.369Z,100525.09
2018-11-02T12:47:49.315Z,100533.97
2018-11-02T12:50:21.024Z,100528.64
2018-11-02T12:52:49.632Z,100523.51
2018-11-02T12:55:17.758Z,100523.62
2018-11-02T12:57:45.460Z,100532.17
2018-11-02T13:00:15.639Z,100527.75
2018-11-02T13:02:44.333Z,100536.86
2018-11-02T13:05:12.074Z,100534.48
2018-11-02T13:07:39.946Z,100540.29
2018-11-02T13:10:10.634Z,100544.47
2018-11-02T13:12:38.354Z,100551.12
2018-11-02T13:15:08.514Z,100552.06
2018-11-02T13:17:36.270Z,100553.67
2018-11-02T13:20:04.736Z,100545.48
2018-11-02T13:22:32.587Z,100548.16
2018-11-02T13:25:00.279Z,100549.36
2018-11-02T13:27:28.010Z,100556.11
2018-11-02T13:29:55.752Z,100561.33
2018-11-02T13:32:23.950Z,100555.53
2018-11-02T13:34:51.664Z,100562.11
2018-11-02T13:37:19.593Z,100557.79
2018-11-02T13:39:47.182Z,100559.23
2018-11-02T13:42:14.866Z,100552.46
2018-11-02T13:44:42.590Z,100545.37
2018-11-02T13:47:10.300Z,100558.91
2018-11-02T13:49:38.002Z,100560.53
2018-11-02T13:52:07.006Z,100560.55
2018-11-02T13:54:35.472Z,100570.13
2018-11-02T13:57:03.240Z,100572.61
2018-11-02T13:59:30.989Z,100564.59
2018-11-02T14:01:58.638Z,100568.77
2018-11-02T14:04:26.298Z,100561.69
2018-11-02T14:06:54.023Z,100573.98
2018-11-02T14:09:21.731Z,100575.43
2018-11-02T14:11:49.429Z,100576.31
2018-11-02T14:14:17.128Z,100577.66
2018-11-02T14:16:44.850Z,100586.52
2018-11-02T14:19:12.551Z,100578.63
2018-11-02T14:21:40.317Z,100586.32
2018-11-02T14:24:07.962Z,100582.61
2018-11-02T14:26:35.728Z,100579.14
2018-11-02T14:29:03.487Z,100577.22
2018-11-02T14:31:31.160Z,100591.49
2018-11-02T14:33:58.889Z,100601.20
2018-11-02T14:36:26.649Z,100593.80
2018-11-02T14:38:54.362Z,100598.50
2018-11-02T14:41:22.016Z,100601.73
2018-11-02T14:43:49.809Z,100606.14
2018-11-02T14:46:17.536Z,100602.95
2018-11-02T14:48:45.225Z,100609.17
2018-11-02T14:51:12.950Z,100619.10
2018-11-02T14:53:40.627Z,100618.86
2018-11-02T14:56:08.347Z,100628.53
2018-11-02T14:58:36.183Z,100625.17
2018-11-02T15:01:04.549Z,100635.83
2018-11-02T15:03:32.212Z,100632.70
2018-11-02T15:05:59.935Z,100627.89
2018-11-02T15:08:27.589Z,100629.30
2018-11-02T15:10:55.483Z,100641.31
2018-11-02T15:13:23.181Z,100651.08
2018-11-02T15:15:50.887Z,100649.92
2018-11-02T15:18:18.602Z,100654.94
2018-11-02T15:20:46.338Z,100649.39
2018-11-02T15:23:14.031Z,100648.55
2018-11-02T15:25:41.728Z,100660.76
2018-11-02T15:28:09.391Z,100664.91
2018-11-02T15:30:37.185Z,100667.09
2018-11-02T15:33:05.636Z,100673.33
2018-11-02T15:35:33.396Z,100676.22
2018-11-02T15:38:01.049Z,100672.78
2018-11-02T15:40:28.808Z,100671.75
2018-11-02T15:42:56.623Z,100676.77
2018-11-02T15:45:24.562Z,100678.20
2018-11-02T15:47:52.361Z,100679.52
2018-11-02T15:50:20.030Z,100675.56
2018-11-02T15:52:47.761Z,100672.81
2018-11-02T15:55:15.463Z,100675.55
2018-11-02T15:57:43.113Z,100667.64
2018-11-02T16:00:15.552Z,100672.21
2018-11-02T16:02:44.175Z,100671.27
2018-11-02T16:05:11.883Z,100685.75
2018-11-02T16:07:39.846Z,100691.28
2018-11-02T16:10:08.704Z,100696.67
2018-11-02T16:12:36.422Z,100702.89
2018-11-02T16:15:05.331Z,100695.70
2018-11-02T16:17:33.047Z,100699.05
2018-11-02T16:20:00.764Z,100695.09
2018-11-02T16:22:28.741Z,100703.14
2018-11-02T16:24:56.456Z,100703.24
2018-11-02T16:27:34.900Z,100706.93
2018-11-02T16:30:02.780Z,100700.69
2018-11-02T16:32:30.430Z,100711.45
2018-11-02T16:34:58.397Z,100711.05
2018-11-02T16:37:26.806Z,100711.77
2018-11-02T16:39:55.561Z,100716.78
2018-11-02T16:42:23.570Z,100719.19
2018-11-02T16:44:52.567Z,100721.20
2018-11-02T16:47:20.342Z,100717.25
2018-11-02T16:49:48.649Z,100713.77
2018-11-02T16:52:16.402Z,100710.53
2018-11-02T16:54:44.144Z,100718.28
2018-11-02T16:57:11.804Z,100723.80
2018-11-02T16:59:39.477Z,100731.22
2018-11-02T17:02:07.238Z,100733.68
2018-11-02T17:04:35.006Z,100741.06
2018-11-02T17:07:02.633Z,100745.93
2018-11-02T17:09:30.382Z,100750.12
2018-11-02T17:11:58.042Z,100740.98
2018-11-02T17:14:25.736Z,100744.29
2018-11-02T17:16:53.432Z,100742.00
2018-11-02T17:19:21.234Z,100734.12
2018-11-02T17:21:49.073Z,100745.61
2018-11-02T17:24:16.892Z,100744.29
2018-11-02T17:26:44.475Z,100750.64
2018-11-02T17:29:12.118Z,100746.55
2018-11-02T17:31:39.861Z,100747.60
2018-11-02T17:34:07.529Z,100744.84
2018-11-02T17:36:35.262Z,100749.02
2018-11-02T17:39:04.320Z,100753.81
2018-11-02T17:41:32.718Z,100751.02
2018-11-02T17:44:00.380Z,100751.45
2018-11-02T17:46:28.058Z,100752.97
2018-11-02T17:48:55.845Z,100756.55
2018-11-02T17:51:23.481Z,100762.17
2018-11-02T17:53:51.827Z,100765.89
2018-11-02T17:56:19.524Z,100768.64
2018-11-02T18:01:14.493Z,100777.88
2018-11-02T18:03:42.411Z,100777.52
2018-11-02T18:06:10.150Z,100789.72
2018-11-02T18:08:37.919Z,100796.67
2018-11-02T18:11:05.720Z,100808.05
2018-11-02T18:13:33.437Z,100818.44
2018-11-02T18:16:01.161Z,100835.25
2018-11-02T18:18:28.862Z,100833.05
2018-11-02T18:20:56.596Z,100841.41
2018-11-02T18:23:24.289Z,100850.52
2018-11-02T18:25:52.076Z,100856.20
2018-11-02T18:28:19.825Z,100850.81
2018-11-02T18:30:47.512Z,100851.55
2018-11-02T18:33:15.240Z,100857.56
2018-11-02T18:35:42.965Z,100858.08
2018-11-02T18:38:10.642Z,100874.06
2018-11-02T18:40:38.416Z,100877.58
2018-11-02T18:43:06.073Z,100881.34
2018-11-02T18:45:33.706Z,100873.55
2018-11-02T18:48:01.463Z,100880.13
2018-11-02T18:50:29.105Z,100884.70
2018-11-02T18:52:56.776Z,100888.05
2018-11-02T18:55:24.510Z,100893.49
2018-11-02T18:57:52.265Z,100883.77
2018-11-02T19:00:19.965Z,100888.69
2018-11-02T19:02:47.648Z,100885.67
2018-11-02T19:05:16.569Z,100880.95
2018-11-02T19:07:44.519Z,100883.81
2018-11-02T19:10:12.401Z,100882.38
2018-11-02T19:12:40.599Z,100882.47
2018-11-02T19:15:11.236Z,100882.19
2018-11-02T19:17:39.082Z,100880.27
2018-11-02T19:20:07.752Z,100885.66
2018-11-02T19:22:35.612Z,100882.75
2018-11-02T19:25:03.618Z,100890.31
2018-11-02T19:27:31.403Z,100866.44
2018-11-02T19:29:59.107Z,100869.50
2018-11-02T19:32:27.040Z,100862.92
2018-11-02T19:34:54.969Z,100861.80
2018-11-02T19:37:22.478Z,100871.38
2018-11-02T19:39:50.250Z,100882.88
2018-11-02T19:42:18.076Z,100900.63
2018-11-02T19:44:45.700Z,100903.02
2018-11-02T19:47:13.486Z,100907.94
2018-11-02T19:49:41.165Z,100896.88
2018-11-02T19:52:08.847Z,100908.34
2018-11-02T19:54:39.662Z,100919.05
2018-11-02T19:57:07.330Z,100922.73
2018-11-02T19:59:35.044Z,100913.34
2018-11-02T20:02:02.745Z,100915.84
2018-11-02T20:04:30.830Z,100914.36
2018-11-02T20:06:58.595Z,100912.11
2018-11-02T20:09:26.371Z,100915.39
2018-11-02T20:11:54.119Z,100921.24
2018-11-02T20:14:21.782Z,100931.84
2018-11-02T20:16:49.556Z,100935.72
2018-11-02T20:19:17.272Z,100934.11
2018-11-02T20:21:44.927Z,100923.60
2018-11-02T20:24:12.618Z,100931.25
2018-11-02T20:26:40.267Z,100917.30
2018-11-02T20:29:07.984Z,100913.23
2018-11-02T20:31:35.676Z,100915.77
2018-11-02T20:34:03.763Z,100919.08
2018-11-02T20:36:31.409Z,100921.59
2018-11-02T20:38:59.309Z,100931.84
2018-11-02T20:41:27.000Z,100933.53
2018-11-02T20:43:54.661Z,100923.28
2018-11-02T20:46:22.384Z,100919.25
2018-11-02T20:48:50.140Z,100917.86
2018-11-02T20:51:17.849Z,100918.16
2018-11-02T20:53:45.578Z,100930.17
2018-11-02T20:56:13.269Z,100933.02
2018-11-02T20:58:40.987Z,100920.14
2018-11-02T21:01:09.282Z,100915.27
2018-11-02T21:03:37.001Z,100921.37
2018-11-02T21:06:05.011Z,100921.92
2018-11-02T21:08:33.077Z,100924.47
2018-11-02T21:11:00.740Z,100932.44
2018-11-02T21:13:28.476Z,100932.57
2018-11-02T21:15:56.162Z,100930.59
2018-11-02T21:18:23.939Z,100923.69
2018-11-02T21:20:52.281Z,100923.14
2018-11-02T21:23:19.970Z,100927.09
2018-11-02T21:25:48.044Z,100938.69
2018-11-02T21:28:15.777Z,100938.14
2018-11-02T21:30:43.644Z,100928.66
2018-11-02T21:33:11.322Z,100934.38
2018-11-02T21:35:39.154Z,100943.02
2018-11-02T21:38:06.858Z,100946.86
2018-11-02T21:40:34.749Z,100950.13
2018-11-02T21:43:02.479Z,100962.24
2018-11-02T21:45:30.139Z,100948.18
2018-11-02T21:47:57.827Z,100937.38
2018-11-02T21:50:25.475Z,100940.01
2018-11-02T21:52:53.131Z,100942.63
2018-11-02T21:55:20.937Z,100947.97
2018-11-02T21:57:48.573Z,100951.14
2018-11-02T22:00:17.489Z,100945.84
2018-11-02T22:02:45.695Z,100939.25
2018-11-02T22:05:13.749Z,100932.21
2018-11-02T22:07:42.518Z,100927.50
2018-11-02T22:10:11.129Z,100932.67
2018-11-02T22:12:38.981Z,100941.31
2018-11-02T22:15:07.909Z,100938.90
2018-11-02T22:17:35.614Z,100942.25
2018-11-02T22:20:03.899Z,100944.23
2018-11-02T22:22:31.910Z,100941.14
2018-11-02T22:24:59.523Z,100942.88
2018-11-02T22:27:27.187Z,100942.83
2018-11-02T22:29:54.813Z,100937.50
2018-11-02T22:32:22.515Z,100942.70
2018-11-02T22:34:50.147Z,100948.81
2018-11-02T22:37:17.785Z,100954.27
2018-11-02T22:39:45.471Z,100946.19
2018-11-02T22:42:13.123Z,100950.97
2018-11-02T22:44:40.733Z,100956.91
2018-11-02T22:47:08.441Z,100949.02
2018-11-02T22:49:36.163Z,100947.97
2018-11-02T22:52:04.149Z,100943.27
2018-11-02T22:54:31.830Z,100947.32
2018-11-02T22:56:59.511Z,100954.61
2018-11-02T22:59:27.215Z,100960.25
2018-11-02T23:01:54.963Z,100957.37
2018-11-02T23:04:22.696Z,100956.78
2018-11-02T23:06:50.591Z,100954.54
2018-11-02T23:09:18.241Z,100951.34
2018-11-02T23:11:45.927Z,100954.98
2018-11-02T23:14:13.758Z,100961.17
2018-11-02T23:16:41.477Z,100966.25
2018-11-02T23:19:09.238Z,100971.21
2018-11-02T23:21:36.952Z,100973.75
2018-11-02T23:24:05.262Z,100976.06
2018-11-02T23:26:33.094Z,100979.39
2018-11-02T23:29:00.807Z,100981.47
2018-11-02T23:31:28.482Z,100988.42
2018-11-02T23:33:56.168Z,100993.75
2018-11-02T23:36:23.870Z,100994.42
2018-11-02T23:38:51.504Z,100991.80
2018-11-02T23:41:19.143Z,100986.16
2018-11-02T23:43:47.034Z,100988.33
2018-11-02T23:46:14.722Z,100979.78
2018-11-02T23:48:42.402Z,100974.64
2018-11-02T23:51:10.018Z,100965.45
2018-11-02T23:53:37.677Z,100975.19
2018-11-02T23:56:05.323Z,100986.23
2018-11-02T23:58:33.134Z,100979.70
